Terminal Aerodrome Forecast
Issued by NWS

Home | Current Version | Previous Version | Text Only | Print | Product List | Glossary On
Versions: 1 2 3 4 5 6 7 8 9 10 11 12 13 14 15
000
FTUS46 KPDT 221700
TAFRDM
TAF
KRDM 221720Z 2218/2318 17012KT P6SM BKN080 OVC090
     FM222000 18014KT P6SM VCSH BKN050 OVC080
     FM230000 18012KT P6SM -SHRA OVC050
     FM230900 18010KT P6SM -SHRA OVC040=

USA.gov is the U.S. government's official web portal to all federal, state and local government web resources and services.